sensor_id;sensor_type;location;lat;lon;timestamp;P1;durP1;ratioP1;P2;durP2;ratioP2
7707;SDS011;3896;48.758;8.888;2023-03-23T00:01:27;0.83;;;0.80;;
7707;SDS011;3896;48.758;8.888;2023-03-23T00:03:55;0.80;;;0.80;;
7707;SDS011;3896;48.758;8.888;2023-03-23T00:06:22;1.27;;;1.20;;
7707;SDS011;3896;48.758;8.888;2023-03-23T00:08:50;2.40;;;1.33;;
7707;SDS011;3896;48.758;8.888;2023-03-23T00:11:22;1.03;;;1.03;;
7707;SDS011;3896;48.758;8.888;2023-03-23T00:13:51;1.47;;;0.83;;
7707;SDS011;3896;48.758;8.888;2023-03-23T00:16:20;3.47;;;1.00;;
7707;SDS011;3896;48.758;8.888;2023-03-23T00:18:54;1.20;;;1.10;;
7707;SDS011;3896;48.758;8.888;2023-03-23T00:21:21;0.77;;;0.77;;
7707;SDS011;3896;48.758;8.888;2023-03-23T00:23:50;0.97;;;0.90;;
7707;SDS011;3896;48.758;8.888;2023-03-23T00:26:16;3.00;;;2.40;;
7707;SDS011;3896;48.758;8.888;2023-03-23T00:28:43;2.13;;;1.20;;
7707;SDS011;3896;48.758;8.888;2023-03-23T00:31:11;1.30;;;1.20;;
7707;SDS011;3896;48.758;8.888;2023-03-23T00:33:37;1.20;;;1.10;;
7707;SDS011;3896;48.758;8.888;2023-03-23T00:36:06;1.17;;;1.00;;
7707;SDS011;3896;48.758;8.888;2023-03-23T00:38:33;1.43;;;1.10;;
7707;SDS011;3896;48.758;8.888;2023-03-23T00:41:00;2.47;;;1.20;;
7707;SDS011;3896;48.758;8.888;2023-03-23T00:43:27;1.20;;;1.10;;
7707;SDS011;3896;48.758;8.888;2023-03-23T00:45:54;1.43;;;0.90;;
7707;SDS011;3896;48.758;8.888;2023-03-23T00:48:20;1.27;;;1.17;;
7707;SDS011;3896;48.758;8.888;2023-03-23T00:50:48;0.83;;;0.83;;
7707;SDS011;3896;48.758;8.888;2023-03-23T00:53:14;1.57;;;1.20;;
7707;SDS011;3896;48.758;8.888;2023-03-23T00:55:44;1.20;;;1.10;;
7707;SDS011;3896;48.758;8.888;2023-03-23T00:58:11;3.60;;;1.50;;
7707;SDS011;3896;48.758;8.888;2023-03-23T01:00:38;1.57;;;1.20;;
7707;SDS011;3896;48.758;8.888;2023-03-23T01:03:04;1.20;;;1.07;;
7707;SDS011;3896;48.758;8.888;2023-03-23T01:05:34;0.93;;;0.93;;
7707;SDS011;3896;48.758;8.888;2023-03-23T01:08:01;1.20;;;1.10;;
7707;SDS011;3896;48.758;8.888;2023-03-23T01:10:28;2.30;;;1.20;;
7707;SDS011;3896;48.758;8.888;2023-03-23T01:12:57;1.33;;;1.23;;
7707;SDS011;3896;48.758;8.888;2023-03-23T01:15:23;1.10;;;1.10;;
7707;SDS011;3896;48.758;8.888;2023-03-23T01:17:49;1.80;;;1.13;;
7707;SDS011;3896;48.758;8.888;2023-03-23T01:20:15;2.67;;;1.40;;
7707;SDS011;3896;48.758;8.888;2023-03-23T01:22:41;1.30;;;1.10;;
7707;SDS011;3896;48.758;8.888;2023-03-23T01:25:08;1.07;;;1.00;;
7707;SDS011;3896;48.758;8.888;2023-03-23T01:27:35;1.03;;;1.03;;
7707;SDS011;3896;48.758;8.888;2023-03-23T01:30:01;1.70;;;1.20;;
7707;SDS011;3896;48.758;8.888;2023-03-23T01:32:28;2.03;;;1.30;;
7707;SDS011;3896;48.758;8.888;2023-03-23T01:34:53;1.20;;;1.13;;
7707;SDS011;3896;48.758;8.888;2023-03-23T01:37:19;2.93;;;1.27;;
7707;SDS011;3896;48.758;8.888;2023-03-23T01:39:45;1.33;;;1.00;;
7707;SDS011;3896;48.758;8.888;2023-03-23T01:42:11;1.17;;;1.07;;
7707;SDS011;3896;48.758;8.888;2023-03-23T01:47:02;1.20;;;1.10;;
7707;SDS011;3896;48.758;8.888;2023-03-23T01:49:32;2.17;;;1.33;;
7707;SDS011;3896;48.758;8.888;2023-03-23T01:52:02;2.20;;;1.63;;
7707;SDS011;3896;48.758;8.888;2023-03-23T01:54:33;1.40;;;1.30;;
7707;SDS011;3896;48.758;8.888;2023-03-23T01:57:10;1.23;;;1.13;;
7707;SDS011;3896;48.758;8.888;2023-03-23T01:59:38;2.80;;;1.33;;
7707;SDS011;3896;48.758;8.888;2023-03-23T02:02:05;1.77;;;1.20;;
7707;SDS011;3896;48.758;8.888;2023-03-23T02:04:30;1.57;;;1.47;;
7707;SDS011;3896;48.758;8.888;2023-03-23T02:06:58;1.60;;;0.93;;
7707;SDS011;3896;48.758;8.888;2023-03-23T02:09:25;1.77;;;1.57;;
7707;SDS011;3896;48.758;8.888;2023-03-23T02:11:51;1.63;;;1.53;;
7707;SDS011;3896;48.758;8.888;2023-03-23T02:14:18;1.23;;;0.97;;
7707;SDS011;3896;48.758;8.888;2023-03-23T02:16:45;1.53;;;1.30;;
7707;SDS011;3896;48.758;8.888;2023-03-23T02:33:38;2.63;;;1.47;;
7707;SDS011;3896;48.758;8.888;2023-03-23T02:41:54;1.50;;;1.40;;
7707;SDS011;3896;48.758;8.888;2023-03-23T02:44:24;2.20;;;1.50;;
7707;SDS011;3896;48.758;8.888;2023-03-23T02:46:55;2.37;;;1.30;;
7707;SDS011;3896;48.758;8.888;2023-03-23T02:49:22;4.03;;;1.90;;
7707;SDS011;3896;48.758;8.888;2023-03-23T02:51:50;1.43;;;1.40;;
7707;SDS011;3896;48.758;8.888;2023-03-23T02:54:17;1.43;;;1.33;;
7707;SDS011;3896;48.758;8.888;2023-03-23T02:56:45;1.70;;;1.60;;
7707;SDS011;3896;48.758;8.888;2023-03-23T02:59:11;1.87;;;1.40;;
7707;SDS011;3896;48.758;8.888;2023-03-23T03:04:24;4.77;;;2.07;;
7707;SDS011;3896;48.758;8.888;2023-03-23T03:06:58;2.17;;;1.60;;
7707;SDS011;3896;48.758;8.888;2023-03-23T03:09:46;1.57;;;1.40;;
7707;SDS011;3896;48.758;8.888;2023-03-23T03:12:15;2.13;;;1.70;;
7707;SDS011;3896;48.758;8.888;2023-03-23T03:14:54;2.93;;;1.53;;
7707;SDS011;3896;48.758;8.888;2023-03-23T03:17:30;1.70;;;1.57;;
7707;SDS011;3896;48.758;8.888;2023-03-23T03:19:57;1.70;;;1.60;;
7707;SDS011;3896;48.758;8.888;2023-03-23T03:22:35;2.93;;;1.63;;
7707;SDS011;3896;48.758;8.888;2023-03-23T03:25:07;1.77;;;1.37;;
7707;SDS011;3896;48.758;8.888;2023-03-23T03:27:33;1.30;;;1.30;;
7707;SDS011;3896;48.758;8.888;2023-03-23T03:30:00;2.43;;;1.63;;
7707;SDS011;3896;48.758;8.888;2023-03-23T03:32:40;1.60;;;1.50;;
7707;SDS011;3896;48.758;8.888;2023-03-23T03:35:11;1.30;;;1.20;;
7707;SDS011;3896;48.758;8.888;2023-03-23T03:37:38;2.97;;;1.50;;
7707;SDS011;3896;48.758;8.888;2023-03-23T03:40:15;1.57;;;1.47;;
7707;SDS011;3896;48.758;8.888;2023-03-23T03:42:43;1.77;;;1.30;;
7707;SDS011;3896;48.758;8.888;2023-03-23T03:45:11;1.57;;;1.47;;
7707;SDS011;3896;48.758;8.888;2023-03-23T03:47:38;2.03;;;1.40;;
7707;SDS011;3896;48.758;8.888;2023-03-23T03:50:04;1.43;;;1.33;;
7707;SDS011;3896;48.758;8.888;2023-03-23T03:52:30;2.13;;;1.47;;
7707;SDS011;3896;48.758;8.888;2023-03-23T03:54:56;1.63;;;1.53;;
7707;SDS011;3896;48.758;8.888;2023-03-23T03:57:22;2.13;;;1.50;;
7707;SDS011;3896;48.758;8.888;2023-03-23T03:59:48;2.60;;;1.40;;
7707;SDS011;3896;48.758;8.888;2023-03-23T04:02:14;3.47;;;1.67;;
7707;SDS011;3896;48.758;8.888;2023-03-23T04:04:44;1.83;;;1.73;;
7707;SDS011;3896;48.758;8.888;2023-03-23T04:07:14;1.47;;;1.30;;
7707;SDS011;3896;48.758;8.888;2023-03-23T04:09:43;2.03;;;1.70;;
7707;SDS011;3896;48.758;8.888;2023-03-23T04:12:11;1.93;;;1.40;;
7707;SDS011;3896;48.758;8.888;2023-03-23T04:14:37;1.93;;;1.30;;
7707;SDS011;3896;48.758;8.888;2023-03-23T04:17:03;1.40;;;1.30;;
7707;SDS011;3896;48.758;8.888;2023-03-23T04:19:28;1.57;;;1.47;;
7707;SDS011;3896;48.758;8.888;2023-03-23T04:21:58;1.33;;;1.20;;
7707;SDS011;3896;48.758;8.888;2023-03-23T04:24:24;3.07;;;1.63;;
7707;SDS011;3896;48.758;8.888;2023-03-23T04:26:50;2.23;;;1.43;;
7707;SDS011;3896;48.758;8.888;2023-03-23T04:29:19;1.20;;;1.20;;
7707;SDS011;3896;48.758;8.888;2023-03-23T04:31:44;1.30;;;1.20;;
7707;SDS011;3896;48.758;8.888;2023-03-23T04:34:10;1.40;;;1.30;;
7707;SDS011;3896;48.758;8.888;2023-03-23T04:36:39;1.80;;;1.70;;
7707;SDS011;3896;48.758;8.888;2023-03-23T04:39:05;2.67;;;1.53;;
7707;SDS011;3896;48.758;8.888;2023-03-23T04:41:37;2.37;;;1.50;;
7707;SDS011;3896;48.758;8.888;2023-03-23T04:44:04;3.43;;;1.80;;
7707;SDS011;3896;48.758;8.888;2023-03-23T04:46:30;1.70;;;1.30;;
7707;SDS011;3896;48.758;8.888;2023-03-23T04:48:57;1.77;;;1.67;;
7707;SDS011;3896;48.758;8.888;2023-03-23T04:51:24;1.47;;;1.37;;
7707;SDS011;3896;48.758;8.888;2023-03-23T04:53:51;1.63;;;1.40;;
7707;SDS011;3896;48.758;8.888;2023-03-23T04:56:17;1.90;;;1.67;;
7707;SDS011;3896;48.758;8.888;2023-03-23T04:58:43;2.13;;;1.57;;
7707;SDS011;3896;48.758;8.888;2023-03-23T05:01:09;1.37;;;1.27;;
7707;SDS011;3896;48.758;8.888;2023-03-23T05:03:38;1.60;;;1.40;;
7707;SDS011;3896;48.758;8.888;2023-03-23T05:06:05;1.40;;;1.30;;
7707;SDS011;3896;48.758;8.888;2023-03-23T05:08:31;1.87;;;1.77;;
7707;SDS011;3896;48.758;8.888;2023-03-23T05:10:57;2.73;;;1.50;;
7707;SDS011;3896;48.758;8.888;2023-03-23T05:13:24;1.53;;;1.43;;
7707;SDS011;3896;48.758;8.888;2023-03-23T05:15:52;1.43;;;1.33;;
7707;SDS011;3896;48.758;8.888;2023-03-23T05:18:17;1.40;;;1.30;;
7707;SDS011;3896;48.758;8.888;2023-03-23T05:20:45;3.57;;;1.33;;
7707;SDS011;3896;48.758;8.888;2023-03-23T05:23:11;2.40;;;2.10;;
7707;SDS011;3896;48.758;8.888;2023-03-23T05:25:37;1.60;;;1.50;;
7707;SDS011;3896;48.758;8.888;2023-03-23T05:28:07;3.17;;;2.03;;
7707;SDS011;3896;48.758;8.888;2023-03-23T05:30:33;2.17;;;1.17;;
7707;SDS011;3896;48.758;8.888;2023-03-23T05:32:59;4.23;;;1.50;;
7707;SDS011;3896;48.758;8.888;2023-03-23T05:35:25;1.87;;;1.67;;
7707;SDS011;3896;48.758;8.888;2023-03-23T05:37:52;3.57;;;1.47;;
7707;SDS011;3896;48.758;8.888;2023-03-23T05:40:18;3.37;;;1.40;;
7707;SDS011;3896;48.758;8.888;2023-03-23T05:42:45;2.63;;;1.33;;
7707;SDS011;3896;48.758;8.888;2023-03-23T05:45:12;1.43;;;1.33;;
7707;SDS011;3896;48.758;8.888;2023-03-23T05:47:39;1.40;;;1.30;;
7707;SDS011;3896;48.758;8.888;2023-03-23T05:50:06;1.53;;;1.43;;
7707;SDS011;3896;48.758;8.888;2023-03-23T05:52:34;1.60;;;1.43;;
7707;SDS011;3896;48.758;8.888;2023-03-23T05:55:03;1.67;;;1.53;;
7707;SDS011;3896;48.758;8.888;2023-03-23T05:57:30;4.37;;;1.60;;
7707;SDS011;3896;48.758;8.888;2023-03-23T05:59:56;4.20;;;1.53;;
7707;SDS011;3896;48.758;8.888;2023-03-23T06:02:22;2.43;;;1.63;;
7707;SDS011;3896;48.758;8.888;2023-03-23T06:04:49;4.50;;;1.80;;
7707;SDS011;3896;48.758;8.888;2023-03-23T06:07:15;2.90;;;1.57;;
7707;SDS011;3896;48.758;8.888;2023-03-23T06:09:41;3.57;;;1.37;;
7707;SDS011;3896;48.758;8.888;2023-03-23T06:12:07;2.87;;;1.47;;
7707;SDS011;3896;48.758;8.888;2023-03-23T06:14:34;1.73;;;1.30;;
7707;SDS011;3896;48.758;8.888;2023-03-23T06:17:00;2.10;;;1.90;;
7707;SDS011;3896;48.758;8.888;2023-03-23T06:19:26;3.20;;;1.83;;
7707;SDS011;3896;48.758;8.888;2023-03-23T06:21:52;2.97;;;1.53;;
7707;SDS011;3896;48.758;8.888;2023-03-23T06:24:19;2.70;;;1.70;;
7707;SDS011;3896;48.758;8.888;2023-03-23T06:26:46;5.23;;;2.20;;
7707;SDS011;3896;48.758;8.888;2023-03-23T06:29:12;4.57;;;1.77;;
7707;SDS011;3896;48.758;8.888;2023-03-23T06:31:42;1.37;;;1.27;;
7707;SDS011;3896;48.758;8.888;2023-03-23T06:34:11;1.90;;;1.40;;
7707;SDS011;3896;48.758;8.888;2023-03-23T06:36:37;1.43;;;1.30;;
7707;SDS011;3896;48.758;8.888;2023-03-23T06:39:03;3.50;;;1.57;;
7707;SDS011;3896;48.758;8.888;2023-03-23T06:41:29;2.47;;;1.50;;
7707;SDS011;3896;48.758;8.888;2023-03-23T06:43:59;1.57;;;1.47;;
7707;SDS011;3896;48.758;8.888;2023-03-23T06:46:25;1.73;;;1.50;;
7707;SDS011;3896;48.758;8.888;2023-03-23T06:48:51;2.17;;;1.30;;
7707;SDS011;3896;48.758;8.888;2023-03-23T06:51:17;1.83;;;1.50;;
7707;SDS011;3896;48.758;8.888;2023-03-23T06:53:43;1.60;;;1.50;;
7707;SDS011;3896;48.758;8.888;2023-03-23T06:56:09;2.50;;;1.77;;
7707;SDS011;3896;48.758;8.888;2023-03-23T06:58:36;2.83;;;1.50;;
7707;SDS011;3896;48.758;8.888;2023-03-23T07:01:02;1.93;;;1.50;;
7707;SDS011;3896;48.758;8.888;2023-03-23T07:03:28;1.93;;;1.67;;
7707;SDS011;3896;48.758;8.888;2023-03-23T07:05:55;1.83;;;1.50;;
7707;SDS011;3896;48.758;8.888;2023-03-23T07:08:21;3.10;;;1.73;;
7707;SDS011;3896;48.758;8.888;2023-03-23T07:10:47;2.77;;;1.77;;
7707;SDS011;3896;48.758;8.888;2023-03-23T07:13:17;1.50;;;1.40;;
7707;SDS011;3896;48.758;8.888;2023-03-23T07:15:42;2.70;;;1.50;;
7707;SDS011;3896;48.758;8.888;2023-03-23T07:18:09;3.13;;;1.97;;
7707;SDS011;3896;48.758;8.888;2023-03-23T07:20:34;2.27;;;1.70;;
7707;SDS011;3896;48.758;8.888;2023-03-23T07:23:01;4.00;;;2.50;;
7707;SDS011;3896;48.758;8.888;2023-03-23T07:25:27;3.30;;;2.70;;
7707;SDS011;3896;48.758;8.888;2023-03-23T07:27:53;2.97;;;2.00;;
7707;SDS011;3896;48.758;8.888;2023-03-23T07:30:18;7.27;;;2.40;;
7707;SDS011;3896;48.758;8.888;2023-03-23T07:32:44;3.53;;;2.80;;
7707;SDS011;3896;48.758;8.888;2023-03-23T07:35:10;5.67;;;2.67;;
7707;SDS011;3896;48.758;8.888;2023-03-23T07:37:37;5.03;;;3.83;;
7707;SDS011;3896;48.758;8.888;2023-03-23T07:40:03;6.50;;;4.87;;
7707;SDS011;3896;48.758;8.888;2023-03-23T07:42:43;9.43;;;6.03;;
7707;SDS011;3896;48.758;8.888;2023-03-23T07:45:14;7.10;;;4.80;;
7707;SDS011;3896;48.758;8.888;2023-03-23T07:47:40;6.27;;;2.90;;
7707;SDS011;3896;48.758;8.888;2023-03-23T07:50:06;2.63;;;2.43;;
7707;SDS011;3896;48.758;8.888;2023-03-23T07:52:33;1.80;;;1.70;;
7707;SDS011;3896;48.758;8.888;2023-03-23T07:55:00;3.03;;;1.77;;
7707;SDS011;3896;48.758;8.888;2023-03-23T07:57:28;1.97;;;1.67;;
7707;SDS011;3896;48.758;8.888;2023-03-23T07:59:55;3.63;;;1.77;;
7707;SDS011;3896;48.758;8.888;2023-03-23T08:02:21;1.60;;;1.50;;
7707;SDS011;3896;48.758;8.888;2023-03-23T08:04:47;1.57;;;1.47;;
7707;SDS011;3896;48.758;8.888;2023-03-23T08:07:13;2.33;;;1.70;;
7707;SDS011;3896;48.758;8.888;2023-03-23T08:09:41;2.70;;;1.40;;
7707;SDS011;3896;48.758;8.888;2023-03-23T08:12:07;3.23;;;1.80;;
7707;SDS011;3896;48.758;8.888;2023-03-23T08:14:32;2.00;;;1.83;;
7707;SDS011;3896;48.758;8.888;2023-03-23T08:16:58;2.60;;;1.70;;
7707;SDS011;3896;48.758;8.888;2023-03-23T08:19:24;1.93;;;1.70;;
7707;SDS011;3896;48.758;8.888;2023-03-23T08:21:49;2.47;;;1.57;;
7707;SDS011;3896;48.758;8.888;2023-03-23T08:24:15;2.17;;;1.77;;
7707;SDS011;3896;48.758;8.888;2023-03-23T08:26:41;1.70;;;1.60;;
7707;SDS011;3896;48.758;8.888;2023-03-23T08:29:07;2.70;;;1.63;;
7707;SDS011;3896;48.758;8.888;2023-03-23T08:31:33;2.90;;;1.53;;
7707;SDS011;3896;48.758;8.888;2023-03-23T08:34:00;1.70;;;1.60;;
7707;SDS011;3896;48.758;8.888;2023-03-23T08:36:26;4.63;;;2.03;;
7707;SDS011;3896;48.758;8.888;2023-03-23T08:38:53;1.53;;;1.43;;
7707;SDS011;3896;48.758;8.888;2023-03-23T08:41:19;2.70;;;1.60;;
7707;SDS011;3896;48.758;8.888;2023-03-23T08:43:45;1.63;;;1.53;;
7707;SDS011;3896;48.758;8.888;2023-03-23T08:46:11;1.60;;;1.50;;
7707;SDS011;3896;48.758;8.888;2023-03-23T08:48:37;1.67;;;1.53;;
7707;SDS011;3896;48.758;8.888;2023-03-23T08:51:04;1.87;;;1.43;;
7707;SDS011;3896;48.758;8.888;2023-03-23T08:53:31;1.20;;;1.20;;
7707;SDS011;3896;48.758;8.888;2023-03-23T08:56:07;2.07;;;1.37;;
7707;SDS011;3896;48.758;8.888;2023-03-23T08:58:35;1.80;;;1.70;;
7707;SDS011;3896;48.758;8.888;2023-03-23T09:01:02;1.87;;;1.50;;
7707;SDS011;3896;48.758;8.888;2023-03-23T09:03:27;3.90;;;1.67;;
7707;SDS011;3896;48.758;8.888;2023-03-23T09:05:53;1.50;;;1.40;;
7707;SDS011;3896;48.758;8.888;2023-03-23T09:08:22;3.03;;;1.97;;
7707;SDS011;3896;48.758;8.888;2023-03-23T09:10:48;1.83;;;1.33;;
7707;SDS011;3896;48.758;8.888;2023-03-23T09:13:15;1.67;;;1.57;;
7707;SDS011;3896;48.758;8.888;2023-03-23T09:15:40;2.80;;;1.33;;
7707;SDS011;3896;48.758;8.888;2023-03-23T09:18:06;1.63;;;1.40;;
7707;SDS011;3896;48.758;8.888;2023-03-23T09:20:32;2.70;;;1.50;;
7707;SDS011;3896;48.758;8.888;2023-03-23T09:22:59;2.33;;;1.60;;
7707;SDS011;3896;48.758;8.888;2023-03-23T09:25:25;2.50;;;1.50;;
7707;SDS011;3896;48.758;8.888;2023-03-23T09:27:53;3.13;;;1.57;;
7707;SDS011;3896;48.758;8.888;2023-03-23T09:30:21;2.10;;;2.00;;
7707;SDS011;3896;48.758;8.888;2023-03-23T09:32:51;1.50;;;1.40;;
7707;SDS011;3896;48.758;8.888;2023-03-23T09:35:17;1.37;;;1.27;;
7707;SDS011;3896;48.758;8.888;2023-03-23T09:37:46;1.70;;;1.60;;
7707;SDS011;3896;48.758;8.888;2023-03-23T09:40:14;1.80;;;1.50;;
7707;SDS011;3896;48.758;8.888;2023-03-23T09:45:20;2.83;;;1.60;;
7707;SDS011;3896;48.758;8.888;2023-03-23T09:50:44;4.70;;;2.70;;
7707;SDS011;3896;48.758;8.888;2023-03-23T09:53:16;2.43;;;1.63;;
7707;SDS011;3896;48.758;8.888;2023-03-23T09:55:48;2.07;;;1.87;;
7707;SDS011;3896;48.758;8.888;2023-03-23T09:58:21;1.87;;;1.67;;
7707;SDS011;3896;48.758;8.888;2023-03-23T10:01:00;2.43;;;2.17;;
7707;SDS011;3896;48.758;8.888;2023-03-23T10:03:38;1.50;;;1.40;;
7707;SDS011;3896;48.758;8.888;2023-03-23T10:06:07;1.80;;;1.70;;
7707;SDS011;3896;48.758;8.888;2023-03-23T10:08:37;2.30;;;1.60;;
7707;SDS011;3896;48.758;8.888;2023-03-23T10:11:21;1.50;;;1.40;;
7707;SDS011;3896;48.758;8.888;2023-03-23T10:16:40;1.93;;;1.60;;
7707;SDS011;3896;48.758;8.888;2023-03-23T10:19:22;2.47;;;1.70;;
7707;SDS011;3896;48.758;8.888;2023-03-23T10:22:11;1.83;;;1.40;;
7707;SDS011;3896;48.758;8.888;2023-03-23T10:24:43;1.30;;;1.20;;
7707;SDS011;3896;48.758;8.888;2023-03-23T10:30:15;1.70;;;1.60;;
7707;SDS011;3896;48.758;8.888;2023-03-23T10:33:45;1.47;;;1.37;;
7707;SDS011;3896;48.758;8.888;2023-03-23T10:35:52;1.40;;;1.30;;
7707;SDS011;3896;48.758;8.888;2023-03-23T10:38:28;2.40;;;1.63;;
7707;SDS011;3896;48.758;8.888;2023-03-23T10:40:59;1.70;;;1.40;;
7707;SDS011;3896;48.758;8.888;2023-03-23T10:43:28;1.40;;;1.30;;
7707;SDS011;3896;48.758;8.888;2023-03-23T10:45:57;1.73;;;1.40;;
7707;SDS011;3896;48.758;8.888;2023-03-23T10:48:31;1.50;;;1.40;;
7707;SDS011;3896;48.758;8.888;2023-03-23T10:51:02;1.73;;;1.63;;
7707;SDS011;3896;48.758;8.888;2023-03-23T10:53:32;1.37;;;1.10;;
7707;SDS011;3896;48.758;8.888;2023-03-23T10:56:04;1.30;;;1.30;;
7707;SDS011;3896;48.758;8.888;2023-03-23T10:58:43;2.47;;;1.40;;
7707;SDS011;3896;48.758;8.888;2023-03-23T11:01:10;3.23;;;1.60;;
7707;SDS011;3896;48.758;8.888;2023-03-23T11:03:44;1.50;;;1.37;;
7707;SDS011;3896;48.758;8.888;2023-03-23T11:09:15;2.33;;;1.53;;
7707;SDS011;3896;48.758;8.888;2023-03-23T11:11:47;1.80;;;1.70;;
7707;SDS011;3896;48.758;8.888;2023-03-23T11:14:31;1.60;;;1.50;;
7707;SDS011;3896;48.758;8.888;2023-03-23T11:17:02;1.47;;;1.37;;
7707;SDS011;3896;48.758;8.888;2023-03-23T11:19:32;1.70;;;1.60;;
7707;SDS011;3896;48.758;8.888;2023-03-23T11:24:33;1.50;;;1.40;;
7707;SDS011;3896;48.758;8.888;2023-03-23T11:27:06;1.73;;;1.63;;
7707;SDS011;3896;48.758;8.888;2023-03-23T11:29:33;3.33;;;1.80;;
7707;SDS011;3896;48.758;8.888;2023-03-23T11:34:34;3.60;;;1.77;;
7707;SDS011;3896;48.758;8.888;2023-03-23T11:37:10;2.17;;;1.73;;
7707;SDS011;3896;48.758;8.888;2023-03-23T11:39:48;1.53;;;1.40;;
7707;SDS011;3896;48.758;8.888;2023-03-23T11:42:25;1.73;;;1.63;;
7707;SDS011;3896;48.758;8.888;2023-03-23T11:45:13;1.53;;;1.43;;
7707;SDS011;3896;48.758;8.888;2023-03-23T11:47:51;1.87;;;1.50;;
7707;SDS011;3896;48.758;8.888;2023-03-23T11:50:53;3.90;;;1.83;;
7707;SDS011;3896;48.758;8.888;2023-03-23T11:53:31;1.50;;;1.40;;
7707;SDS011;3896;48.758;8.888;2023-03-23T11:58:40;1.97;;;1.80;;
7707;SDS011;3896;48.758;8.888;2023-03-23T12:01:10;1.50;;;1.40;;
7707;SDS011;3896;48.758;8.888;2023-03-23T12:09:22;1.50;;;1.40;;
7707;SDS011;3896;48.758;8.888;2023-03-23T12:14:41;1.87;;;1.50;;
7707;SDS011;3896;48.758;8.888;2023-03-23T12:22:42;1.53;;;1.40;;
7707;SDS011;3896;48.758;8.888;2023-03-23T12:30:32;2.40;;;1.83;;
7707;SDS011;3896;48.758;8.888;2023-03-23T12:36:03;2.90;;;2.60;;
7707;SDS011;3896;48.758;8.888;2023-03-23T12:38:35;1.37;;;1.27;;
7707;SDS011;3896;48.758;8.888;2023-03-23T12:41:29;1.80;;;1.70;;
7707;SDS011;3896;48.758;8.888;2023-03-23T12:44:23;2.67;;;1.27;;
7707;SDS011;3896;48.758;8.888;2023-03-23T12:52:37;2.90;;;1.70;;
7707;SDS011;3896;48.758;8.888;2023-03-23T12:58:08;2.70;;;1.77;;
7707;SDS011;3896;48.758;8.888;2023-03-23T13:00:54;2.60;;;1.67;;
7707;SDS011;3896;48.758;8.888;2023-03-23T13:03:48;3.73;;;1.90;;
7707;SDS011;3896;48.758;8.888;2023-03-23T13:06:37;1.73;;;1.63;;
7707;SDS011;3896;48.758;8.888;2023-03-23T13:11:32;2.43;;;1.77;;
7707;SDS011;3896;48.758;8.888;2023-03-23T13:14:43;2.27;;;1.60;;
7707;SDS011;3896;48.758;8.888;2023-03-23T13:23:14;3.80;;;2.07;;
7707;SDS011;3896;48.758;8.888;2023-03-23T13:28:32;1.33;;;1.23;;
7707;SDS011;3896;48.758;8.888;2023-03-23T13:31:20;3.30;;;1.83;;
7707;SDS011;3896;48.758;8.888;2023-03-23T13:34:01;2.50;;;1.90;;
7707;SDS011;3896;48.758;8.888;2023-03-23T13:37:00;1.90;;;1.70;;
7707;SDS011;3896;48.758;8.888;2023-03-23T13:39:36;2.37;;;1.53;;
7707;SDS011;3896;48.758;8.888;2023-03-23T13:49:52;1.70;;;1.60;;
7707;SDS011;3896;48.758;8.888;2023-03-23T13:52:35;1.70;;;1.60;;
7707;SDS011;3896;48.758;8.888;2023-03-23T13:55:17;1.97;;;1.57;;
7707;SDS011;3896;48.758;8.888;2023-03-23T14:02:59;1.23;;;1.20;;
7707;SDS011;3896;48.758;8.888;2023-03-23T14:05:34;2.67;;;1.67;;
7707;SDS011;3896;48.758;8.888;2023-03-23T14:10:34;1.60;;;1.50;;
7707;SDS011;3896;48.758;8.888;2023-03-23T14:13:11;1.87;;;1.20;;
7707;SDS011;3896;48.758;8.888;2023-03-23T14:18:53;1.80;;;1.53;;
7707;SDS011;3896;48.758;8.888;2023-03-23T14:21:26;1.23;;;1.20;;
7707;SDS011;3896;48.758;8.888;2023-03-23T14:23:56;1.40;;;1.30;;
7707;SDS011;3896;48.758;8.888;2023-03-23T14:26:25;1.60;;;1.50;;
7707;SDS011;3896;48.758;8.888;2023-03-23T14:28:51;1.93;;;1.80;;
7707;SDS011;3896;48.758;8.888;2023-03-23T14:31:20;2.13;;;1.33;;
7707;SDS011;3896;48.758;8.888;2023-03-23T14:33:47;3.13;;;1.60;;
7707;SDS011;3896;48.758;8.888;2023-03-23T14:36:19;1.80;;;1.70;;
7707;SDS011;3896;48.758;8.888;2023-03-23T14:38:46;1.80;;;1.70;;
7707;SDS011;3896;48.758;8.888;2023-03-23T14:41:12;1.60;;;1.50;;
7707;SDS011;3896;48.758;8.888;2023-03-23T14:43:38;2.23;;;1.70;;
7707;SDS011;3896;48.758;8.888;2023-03-23T14:46:07;1.57;;;1.47;;
7707;SDS011;3896;48.758;8.888;2023-03-23T14:48:35;1.57;;;1.47;;
7707;SDS011;3896;48.758;8.888;2023-03-23T14:51:03;1.20;;;1.17;;
7707;SDS011;3896;48.758;8.888;2023-03-23T14:53:33;2.47;;;1.50;;
7707;SDS011;3896;48.758;8.888;2023-03-23T14:56:08;2.27;;;2.00;;
7707;SDS011;3896;48.758;8.888;2023-03-23T14:58:36;1.80;;;1.70;;
7707;SDS011;3896;48.758;8.888;2023-03-23T15:01:06;2.50;;;1.90;;
7707;SDS011;3896;48.758;8.888;2023-03-23T15:03:36;2.13;;;1.47;;
7707;SDS011;3896;48.758;8.888;2023-03-23T15:06:10;3.13;;;1.80;;
7707;SDS011;3896;48.758;8.888;2023-03-23T15:08:42;2.80;;;1.90;;
7707;SDS011;3896;48.758;8.888;2023-03-23T15:13:46;2.07;;;1.63;;
7707;SDS011;3896;48.758;8.888;2023-03-23T15:16:18;3.33;;;1.90;;
7707;SDS011;3896;48.758;8.888;2023-03-23T15:18:56;2.03;;;1.50;;
7707;SDS011;3896;48.758;8.888;2023-03-23T15:21:27;2.17;;;1.60;;
7707;SDS011;3896;48.758;8.888;2023-03-23T15:24:00;2.90;;;1.77;;
7707;SDS011;3896;48.758;8.888;2023-03-23T15:26:40;2.20;;;2.00;;
7707;SDS011;3896;48.758;8.888;2023-03-23T15:31:39;2.73;;;1.87;;
7707;SDS011;3896;48.758;8.888;2023-03-23T15:34:15;3.53;;;2.37;;
7707;SDS011;3896;48.758;8.888;2023-03-23T15:37:02;2.33;;;1.60;;
7707;SDS011;3896;48.758;8.888;2023-03-23T15:39:30;2.67;;;1.70;;
7707;SDS011;3896;48.758;8.888;2023-03-23T15:41:57;2.63;;;1.60;;
7707;SDS011;3896;48.758;8.888;2023-03-23T15:44:26;3.23;;;1.80;;
7707;SDS011;3896;48.758;8.888;2023-03-23T15:47:01;1.50;;;1.40;;
7707;SDS011;3896;48.758;8.888;2023-03-23T15:49:29;1.70;;;1.60;;
7707;SDS011;3896;48.758;8.888;2023-03-23T15:51:55;4.03;;;1.87;;
7707;SDS011;3896;48.758;8.888;2023-03-23T15:54:20;1.50;;;1.40;;
7707;SDS011;3896;48.758;8.888;2023-03-23T15:56:46;2.37;;;1.60;;
7707;SDS011;3896;48.758;8.888;2023-03-23T15:59:12;2.40;;;1.70;;
7707;SDS011;3896;48.758;8.888;2023-03-23T16:01:38;2.30;;;1.70;;
7707;SDS011;3896;48.758;8.888;2023-03-23T16:04:12;1.50;;;1.40;;
7707;SDS011;3896;48.758;8.888;2023-03-23T16:06:40;2.07;;;1.87;;
7707;SDS011;3896;48.758;8.888;2023-03-23T16:09:11;2.27;;;1.67;;
7707;SDS011;3896;48.758;8.888;2023-03-23T16:11:39;1.50;;;1.40;;
7707;SDS011;3896;48.758;8.888;2023-03-23T16:14:04;1.43;;;1.33;;
7707;SDS011;3896;48.758;8.888;2023-03-23T16:16:34;2.87;;;1.60;;
7707;SDS011;3896;48.758;8.888;2023-03-23T16:19:02;1.47;;;1.40;;
7707;SDS011;3896;48.758;8.888;2023-03-23T16:21:29;2.17;;;1.60;;
7707;SDS011;3896;48.758;8.888;2023-03-23T16:23:55;2.57;;;1.97;;
7707;SDS011;3896;48.758;8.888;2023-03-23T16:26:20;3.47;;;1.67;;
7707;SDS011;3896;48.758;8.888;2023-03-23T16:28:46;4.37;;;2.80;;
7707;SDS011;3896;48.758;8.888;2023-03-23T16:31:12;2.33;;;2.13;;
7707;SDS011;3896;48.758;8.888;2023-03-23T16:33:38;2.43;;;2.23;;
7707;SDS011;3896;48.758;8.888;2023-03-23T16:36:03;1.70;;;1.60;;
7707;SDS011;3896;48.758;8.888;2023-03-23T16:38:29;1.60;;;1.50;;
7707;SDS011;3896;48.758;8.888;2023-03-23T16:40:55;3.37;;;1.90;;
7707;SDS011;3896;48.758;8.888;2023-03-23T16:43:20;2.17;;;1.80;;
7707;SDS011;3896;48.758;8.888;2023-03-23T16:45:46;1.80;;;1.70;;
7707;SDS011;3896;48.758;8.888;2023-03-23T16:48:13;2.43;;;2.23;;
7707;SDS011;3896;48.758;8.888;2023-03-23T16:50:40;1.73;;;1.50;;
7707;SDS011;3896;48.758;8.888;2023-03-23T16:53:07;3.80;;;1.93;;
7707;SDS011;3896;48.758;8.888;2023-03-23T16:55:34;3.53;;;1.80;;
7707;SDS011;3896;48.758;8.888;2023-03-23T16:58:00;1.50;;;1.40;;
7707;SDS011;3896;48.758;8.888;2023-03-23T17:00:27;1.70;;;1.60;;
7707;SDS011;3896;48.758;8.888;2023-03-23T17:02:53;2.43;;;1.97;;
7707;SDS011;3896;48.758;8.888;2023-03-23T17:05:22;1.63;;;1.53;;
7707;SDS011;3896;48.758;8.888;2023-03-23T17:07:49;2.47;;;1.20;;
7707;SDS011;3896;48.758;8.888;2023-03-23T17:10:16;1.60;;;1.50;;
7707;SDS011;3896;48.758;8.888;2023-03-23T17:12:42;1.37;;;1.27;;
7707;SDS011;3896;48.758;8.888;2023-03-23T17:15:08;1.83;;;1.63;;
7707;SDS011;3896;48.758;8.888;2023-03-23T17:17:35;1.50;;;1.40;;
7707;SDS011;3896;48.758;8.888;2023-03-23T17:20:02;2.40;;;1.57;;
7707;SDS011;3896;48.758;8.888;2023-03-23T17:22:29;2.40;;;1.33;;